createdAt,value
2022-08-10T00:00:07.521Z,18.67
2022-08-10T00:05:13.183Z,18.63
2022-08-10T00:10:21.056Z,18.65
2022-08-10T00:15:53.051Z,18.64
2022-08-10T00:20:33.790Z,18.67
2022-08-10T00:25:39.430Z,18.67
2022-08-10T00:30:45.104Z,18.67
2022-08-10T00:35:50.661Z,18.68
2022-08-10T00:40:56.122Z,18.72
2022-08-10T00:46:01.687Z,18.72
2022-08-10T00:51:07.766Z,18.69
2022-08-10T00:56:35.251Z,18.60
2022-08-10T01:02:08.496Z,18.56
2022-08-10T01:06:37.157Z,18.30
2022-08-10T01:12:39.279Z,18.30
2022-08-10T01:16:59.221Z,18.27
2022-08-10T01:22:29.286Z,18.22
2022-08-10T01:27:40.714Z,18.20
2022-08-10T01:33:04.273Z,18.15
2022-08-10T01:38:22.122Z,18.04
2022-08-10T01:43:29.838Z,17.93
2022-08-10T01:48:47.175Z,17.93
2022-08-10T01:53:55.713Z,17.94
2022-08-10T01:59:04.368Z,17.92
2022-08-10T02:04:13.348Z,17.90
2022-08-10T02:09:25.007Z,17.77
2022-08-10T02:14:36.507Z,17.82
2022-08-10T02:19:44.289Z,17.82
2022-08-10T02:24:51.927Z,17.79
2022-08-10T02:29:59.101Z,17.82
2022-08-10T02:35:07.929Z,17.84
2022-08-10T02:45:15.216Z,17.79
2022-08-10T02:45:30.861Z,17.81
2022-08-10T02:50:35.240Z,17.75
2022-08-10T02:55:49.489Z,17.80
2022-08-10T03:00:57.785Z,17.84
2022-08-10T03:06:06.549Z,17.83
2022-08-10T03:11:17.438Z,17.81
2022-08-10T03:16:26.128Z,17.85
2022-08-10T03:21:35.215Z,17.82
2022-08-10T03:26:41.142Z,17.85
2022-08-10T03:31:48.204Z,17.82
2022-08-10T03:36:53.972Z,17.76
2022-08-10T03:42:01.588Z,17.73
2022-08-10T03:47:16.050Z,17.69
2022-08-10T03:52:17.625Z,17.68
2022-08-10T03:57:24.766Z,17.67
2022-08-10T04:02:43.491Z,17.67
2022-08-10T04:07:38.833Z,17.63
2022-08-10T04:12:44.396Z,17.62
2022-08-10T04:18:04.514Z,17.64
2022-08-10T04:23:00.483Z,17.69
2022-08-10T04:28:07.199Z,17.67
2022-08-10T04:33:15.424Z,17.68
2022-08-10T04:38:23.247Z,17.74
2022-08-10T04:43:29.036Z,17.81
2022-08-10T04:48:43.198Z,17.93
2022-08-10T04:54:04.596Z,17.97
2022-08-10T04:58:49.522Z,18.06
2022-08-10T05:04:34.009Z,18.26
2022-08-10T05:09:04.350Z,18.27
2022-08-10T05:14:09.912Z,18.36
2022-08-10T05:19:15.475Z,18.36
2022-08-10T05:24:21.043Z,18.38
2022-08-10T05:29:28.342Z,18.51
2022-08-10T05:34:34.538Z,18.71
2022-08-10T05:39:41.712Z,18.79
2022-08-10T05:44:47.343Z,18.97
2022-08-10T05:49:53.676Z,18.99
2022-08-10T05:55:02.734Z,18.97
2022-08-10T06:00:37.021Z,19.08
2022-08-10T06:05:23.727Z,19.19
2022-08-10T06:10:35.253Z,19.37
2022-08-10T06:15:51.943Z,19.36
2022-08-10T06:20:48.814Z,19.41
2022-08-10T06:26:10.367Z,19.59
2022-08-10T06:31:04.612Z,19.73
2022-08-10T06:36:11.879Z,19.94
2022-08-10T06:42:14.959Z,20.06
2022-08-10T06:46:36.568Z,20.27
2022-08-10T06:51:44.049Z,20.44
2022-08-10T06:57:16.704Z,20.61
2022-08-10T07:02:10.051Z,20.71
2022-08-10T07:07:24.451Z,20.85
2022-08-10T07:12:32.713Z,20.78
2022-08-10T07:17:39.885Z,20.94
2022-08-10T07:23:01.784Z,21.22
2022-08-10T07:28:00.441Z,21.41
2022-08-10T07:33:06.719Z,21.64
2022-08-10T07:38:15.320Z,21.66
2022-08-10T07:43:23.954Z,21.82
2022-08-10T07:48:32.489Z,21.97
2022-08-10T07:53:42.691Z,22.29
2022-08-10T07:58:52.694Z,22.44
2022-08-10T08:04:11.064Z,22.71
2022-08-10T08:09:08.143Z,22.84
2022-08-10T08:14:15.714Z,22.84
2022-08-10T08:19:26.663Z,23.05
2022-08-10T08:24:34.486Z,23.19
2022-08-10T08:29:43.079Z,23.14
2022-08-10T08:34:50.424Z,23.32
2022-08-10T08:39:58.250Z,23.62
2022-08-10T08:45:48.260Z,23.65
2022-08-10T08:50:57.711Z,23.72
2022-08-10T08:56:08.491Z,23.80
2022-08-10T09:01:41.422Z,23.94
2022-08-10T09:06:48.809Z,24.16
2022-08-10T09:12:03.385Z,24.41
2022-08-10T09:17:26.969Z,24.59
2022-08-10T09:22:57.745Z,24.78
2022-08-10T09:28:09.504Z,24.94
2022-08-10T09:36:23.864Z,25.08
2022-08-10T09:38:52.306Z,25.27
2022-08-10T09:44:18.559Z,25.33
2022-08-10T09:49:56.405Z,25.41
2022-08-10T09:55:11.769Z,25.52
2022-08-10T10:00:20.592Z,25.58
2022-08-10T10:05:50.270Z,25.69
2022-08-10T10:11:19.717Z,25.85
2022-08-10T10:16:40.651Z,26.13
2022-08-10T10:22:01.320Z,27.35
2022-08-10T10:27:26.723Z,26.66
2022-08-10T10:32:37.346Z,26.72
2022-08-10T10:38:02.037Z,26.43
2022-08-10T10:43:03.093Z,26.13
2022-08-10T10:48:32.933Z,25.79
2022-08-10T10:54:08.710Z,25.81
2022-08-10T10:59:53.891Z,25.93
2022-08-10T11:04:48.831Z,25.93
2022-08-10T11:10:04.744Z,25.92
2022-08-10T11:15:28.723Z,25.92
2022-08-10T11:20:42.977Z,26.18
2022-08-10T11:25:51.512Z,26.29
2022-08-10T11:31:02.915Z,26.44
2022-08-10T11:36:22.817Z,26.52
2022-08-10T11:46:54.344Z,26.72
2022-08-10T11:52:14.957Z,26.64
2022-08-10T11:57:21.342Z,26.77
2022-08-10T12:02:34.572Z,26.81
2022-08-10T12:10:05.835Z,26.93
2022-08-10T12:13:06.113Z,27.07
2022-08-10T12:18:20.442Z,27.28
2022-08-10T12:23:48.032Z,27.17
2022-08-10T12:29:04.243Z,27.26
2022-08-10T12:34:21.927Z,27.29
2022-08-10T12:39:30.529Z,27.49
2022-08-10T12:44:51.763Z,27.50
2022-08-10T12:50:29.322Z,27.46
2022-08-10T12:55:17.948Z,27.50
2022-08-10T13:00:29.258Z,27.50
2022-08-10T13:06:02.221Z,27.52
2022-08-10T13:10:46.418Z,27.60
2022-08-10T13:15:53.606Z,27.42
2022-08-10T13:21:02.146Z,27.38
2022-08-10T13:26:10.852Z,27.48
2022-08-10T13:31:19.725Z,27.36
2022-08-10T13:36:31.494Z,27.30
2022-08-10T13:41:43.069Z,27.36
2022-08-10T13:46:53.627Z,27.38
2022-08-10T13:51:59.917Z,27.62
2022-08-10T13:57:06.944Z,27.74
2022-08-10T14:02:15.457Z,27.85
2022-08-10T14:07:21.453Z,27.72
2022-08-10T14:12:33.528Z,27.64
2022-08-10T14:17:44.761Z,27.67
2022-08-10T14:22:48.744Z,27.80
2022-08-10T14:28:02.867Z,27.97
2022-08-10T14:33:05.110Z,27.85
2022-08-10T14:38:13.747Z,28.00
2022-08-10T14:43:28.278Z,28.19
2022-08-10T14:48:34.095Z,28.44
2022-08-10T14:53:40.650Z,28.47
2022-08-10T14:59:06.166Z,28.23
2022-08-10T15:04:12.521Z,28.13
2022-08-10T15:09:20.835Z,28.16
2022-08-10T15:14:43.620Z,28.02
2022-08-10T15:20:04.123Z,28.14
2022-08-10T15:25:01.293Z,28.04
2022-08-10T15:30:08.374Z,28.02
2022-08-10T15:35:34.345Z,27.95
2022-08-10T15:40:50.864Z,27.99
2022-08-10T15:46:00.668Z,27.92
2022-08-10T15:51:09.382Z,27.82
2022-08-10T15:56:17.981Z,27.81
2022-08-10T16:02:04.087Z,27.90
2022-08-10T16:07:03.312Z,28.13
2022-08-10T16:12:29.035Z,28.68
2022-08-10T16:17:54.717Z,28.71
2022-08-10T16:22:43.053Z,28.66
2022-08-10T16:27:48.827Z,28.62
2022-08-10T16:32:56.012Z,28.40
2022-08-10T16:38:02.265Z,28.49
2022-08-10T16:43:11.037Z,28.42
2022-08-10T16:48:49.034Z,28.48
2022-08-10T16:53:31.022Z,28.33
2022-08-10T16:58:40.006Z,28.30
2022-08-10T17:04:07.984Z,28.41
2022-08-10T17:09:04.779Z,28.33
2022-08-10T17:14:11.149Z,28.01
2022-08-10T17:19:19.488Z,27.90
2022-08-10T17:24:28.030Z,27.63
2022-08-10T17:29:57.544Z,27.26
2022-08-10T17:34:46.319Z,26.91
2022-08-10T17:39:55.239Z,26.73
2022-08-10T17:45:02.892Z,26.62
2022-08-10T17:50:12.227Z,26.44
2022-08-10T17:55:19.202Z,26.27
2022-08-10T18:00:25.327Z,26.03
2022-08-10T18:05:35.491Z,25.95
2022-08-10T18:10:42.602Z,25.83
2022-08-10T18:15:50.183Z,25.69
2022-08-10T18:21:09.057Z,25.52
2022-08-10T18:26:17.763Z,25.40
2022-08-10T18:31:31.716Z,25.24
2022-08-10T18:36:43.983Z,25.11
2022-08-10T18:42:04.959Z,24.97
2022-08-10T18:47:15.689Z,24.82
2022-08-10T18:52:24.080Z,24.66
2022-08-10T18:57:58.413Z,24.54
2022-08-10T19:03:22.407Z,24.43
2022-08-10T19:08:51.096Z,24.29
2022-08-10T19:14:19.489Z,24.07
2022-08-10T19:19:51.397Z,23.90
2022-08-10T19:26:41.772Z,23.78
2022-08-10T19:30:51.118Z,23.69
2022-08-10T19:36:05.653Z,23.57
2022-08-10T19:41:44.225Z,23.44
2022-08-10T19:46:51.275Z,23.34
2022-08-10T19:52:23.428Z,23.16
2022-08-10T19:57:43.888Z,23.06
2022-08-10T20:03:12.042Z,23.01
2022-08-10T20:08:26.301Z,22.88
2022-08-10T20:13:59.918Z,22.73
2022-08-10T20:19:08.449Z,22.63
2022-08-10T20:24:20.751Z,22.54
2022-08-10T20:29:57.417Z,22.44
2022-08-10T20:34:51.709Z,22.34
2022-08-10T20:40:18.342Z,22.18
2022-08-10T20:45:41.493Z,22.08
2022-08-10T20:51:00.690Z,21.95
2022-08-10T20:56:28.672Z,21.85
2022-08-10T21:02:07.351Z,21.69
2022-08-10T21:07:58.282Z,21.58
2022-08-10T21:12:54.790Z,21.51
2022-08-10T21:18:09.245Z,21.47
2022-08-10T21:23:16.632Z,21.38
2022-08-10T21:28:49.902Z,21.32
2022-08-10T21:33:58.434Z,21.95
2022-08-10T21:39:09.943Z,21.47
2022-08-10T21:44:37.411Z,21.21
2022-08-10T21:50:27.725Z,21.09
2022-08-10T21:55:57.637Z,20.98
2022-08-10T22:01:31.862Z,20.82
2022-08-10T22:06:53.245Z,20.69
2022-08-10T22:18:10.017Z,20.54
2022-08-10T22:23:37.680Z,20.47
2022-08-10T22:29:03.952Z,20.39
2022-08-10T22:31:26.947Z,20.60
2022-08-10T22:34:35.712Z,20.31
2022-08-10T22:40:20.525Z,20.24
2022-08-10T22:45:44.301Z,20.20
2022-08-10T22:50:59.529Z,20.11
2022-08-10T22:56:23.891Z,20.05
2022-08-10T23:02:09.000Z,20.01
2022-08-10T23:07:09.011Z,19.97
2022-08-10T23:12:24.406Z,19.86
2022-08-10T23:18:02.149Z,19.84
2022-08-10T23:22:58.463Z,19.86
2022-08-10T23:28:06.736Z,19.86
2022-08-10T23:33:16.873Z,19.84
2022-08-10T23:38:26.979Z,19.81
2022-08-10T23:44:02.844Z,19.80
2022-08-10T23:48:50.569Z,19.78
2022-08-10T23:53:58.453Z,19.74
2022-08-10T23:59:04.818Z,19.70
